createdAt,value
2023-07-29T00:03:42.122Z,99.80
2023-07-29T00:08:47.309Z,99.90
2023-07-29T00:13:52.038Z,99.90
2023-07-29T00:18:55.629Z,99.90
2023-07-29T00:24:02.189Z,99.90
2023-07-29T00:29:05.789Z,99.90
2023-07-29T00:34:09.399Z,99.90
2023-07-29T00:39:14.431Z,99.90
2023-07-29T00:44:17.978Z,99.90
2023-07-29T00:49:21.929Z,99.90
2023-07-29T00:54:27.073Z,99.90
2023-07-29T00:59:31.405Z,99.90
2023-07-29T01:04:35.274Z,99.90
2023-07-29T01:09:49.841Z,99.90
2023-07-29T01:15:01.650Z,99.90
2023-07-29T01:20:10.723Z,99.90
2023-07-29T01:25:16.136Z,99.90
2023-07-29T01:30:20.110Z,99.90
2023-07-29T01:35:26.694Z,99.90
2023-07-29T01:40:31.757Z,99.90
2023-07-29T01:45:38.953Z,99.90
2023-07-29T01:50:42.649Z,99.90
2023-07-29T01:55:47.940Z,99.90
2023-07-29T02:00:51.948Z,99.90
2023-07-29T02:05:55.581Z,99.90
2023-07-29T02:11:00.662Z,99.90
2023-07-29T02:16:04.282Z,99.90
2023-07-29T02:21:07.857Z,99.90
2023-07-29T02:26:12.806Z,99.90
2023-07-29T02:31:18.796Z,99.90
2023-07-29T02:36:22.673Z,99.90
2023-07-29T02:41:28.031Z,99.90
2023-07-29T02:46:31.691Z,99.90
2023-07-29T02:51:35.497Z,99.90
2023-07-29T02:56:40.425Z,99.90
2023-07-29T03:01:44.450Z,99.90
2023-07-29T03:06:49.578Z,99.90
2023-07-29T03:11:55.976Z,99.90
2023-07-29T03:16:59.966Z,99.90
2023-07-29T03:22:03.525Z,99.90
2023-07-29T03:27:10.649Z,99.90
2023-07-29T03:32:14.453Z,99.90
2023-07-29T03:37:18.111Z,99.90
2023-07-29T03:42:23.060Z,99.90
2023-07-29T03:47:26.732Z,99.90
2023-07-29T03:52:31.002Z,99.90
2023-07-29T03:57:35.979Z,99.90
2023-07-29T04:02:40.023Z,99.90
2023-07-29T04:12:49.465Z,99.90
2023-07-29T04:17:53.176Z,99.90
2023-07-29T04:22:57.005Z,99.90
2023-07-29T04:28:04.357Z,99.90
2023-07-29T04:33:08.175Z,99.90
2023-07-29T04:38:14.046Z,99.90
2023-07-29T04:43:18.972Z,99.90
2023-07-29T04:48:23.801Z,99.90
2023-07-29T04:53:27.684Z,99.90
2023-07-29T04:58:35.965Z,99.90
2023-07-29T05:03:41.015Z,99.90
2023-07-29T05:08:45.128Z,99.90
2023-07-29T05:13:50.084Z,99.90
2023-07-29T05:18:53.689Z,99.90
2023-07-29T05:23:57.311Z,99.90
2023-07-29T05:29:02.278Z,99.90
2023-07-29T05:34:06.112Z,99.90
2023-07-29T05:39:11.106Z,99.90
2023-07-29T05:44:16.054Z,99.90
2023-07-29T05:49:19.600Z,99.90
2023-07-29T05:54:23.474Z,99.90
2023-07-29T05:59:30.400Z,99.90
2023-07-29T06:04:34.318Z,99.90
2023-07-29T06:09:37.916Z,99.90
2023-07-29T06:14:42.851Z,99.90
2023-07-29T06:19:46.437Z,99.90
2023-07-29T06:24:50.077Z,99.90
2023-07-29T06:29:55.388Z,99.90
2023-07-29T06:34:58.975Z,99.90
2023-07-29T06:40:02.505Z,99.90
2023-07-29T06:45:09.212Z,99.90
2023-07-29T06:50:13.113Z,99.90
2023-07-29T06:55:16.784Z,99.90
2023-07-29T07:00:21.838Z,99.90
2023-07-29T07:05:25.848Z,99.90
2023-07-29T07:10:29.450Z,99.90
2023-07-29T07:15:34.431Z,99.90
2023-07-29T07:20:38.043Z,99.90
2023-07-29T07:25:41.674Z,99.90
2023-07-29T07:30:46.714Z,99.90
2023-07-29T07:40:58.371Z,99.90
2023-07-29T07:46:04.446Z,99.90
2023-07-29T07:51:14.249Z,99.90
2023-07-29T07:56:17.894Z,99.90
2023-07-29T08:01:22.865Z,99.90
2023-07-29T08:06:26.552Z,99.90
2023-07-29T08:11:30.111Z,99.90
2023-07-29T08:16:35.478Z,99.90
2023-07-29T08:21:39.413Z,99.90
2023-07-29T08:26:43.063Z,99.90
2023-07-29T08:31:48.125Z,99.90
2023-07-29T08:36:51.812Z,99.00
2023-07-29T08:42:00.223Z,96.10
2023-07-29T08:47:06.206Z,96.30
2023-07-29T08:52:11.586Z,95.10
2023-07-29T08:57:16.365Z,93.40
2023-07-29T09:02:21.889Z,92.00
2023-07-29T09:17:35.632Z,83.70
2023-07-29T09:22:39.402Z,84.10
2023-07-29T09:32:48.403Z,77.80
2023-07-29T09:37:52.956Z,76.60
2023-07-29T09:42:57.253Z,77.00
2023-07-29T09:48:02.325Z,75.60
2023-07-29T09:53:06.291Z,73.90
2023-07-29T09:58:10.087Z,72.80
2023-07-29T10:03:16.870Z,70.70
2023-07-29T10:13:25.205Z,69.70
2023-07-29T10:18:31.421Z,69.60
2023-07-29T10:23:37.755Z,67.70
2023-07-29T10:28:45.271Z,66.70
2023-07-29T10:33:50.826Z,67.20
2023-07-29T10:38:55.195Z,66.50
2023-07-29T10:43:58.894Z,65.20
2023-07-29T10:49:04.345Z,64.30
2023-07-29T10:54:15.355Z,63.70
2023-07-29T10:59:35.697Z,62.60
2023-07-29T11:04:49.165Z,61.90
2023-07-29T11:10:01.632Z,62.30
2023-07-29T11:15:13.688Z,62.70
2023-07-29T11:20:19.856Z,62.40
2023-07-29T11:25:25.259Z,61.70
2023-07-29T11:30:30.377Z,62.40
2023-07-29T11:35:35.471Z,62.80
2023-07-29T11:40:39.249Z,62.90
2023-07-29T11:50:57.681Z,63.50
2023-07-29T12:01:06.118Z,63.60
2023-07-29T12:06:11.515Z,63.50
2023-07-29T12:11:16.100Z,63.00
2023-07-29T12:21:24.971Z,62.70
2023-07-29T12:26:29.693Z,62.70
2023-07-29T12:31:34.301Z,62.90
2023-07-29T12:36:50.083Z,62.90
2023-07-29T12:41:55.402Z,62.60
2023-07-29T12:52:04.370Z,62.50
2023-07-29T12:57:08.517Z,63.30
2023-07-29T13:02:11.910Z,63.70
2023-07-29T13:07:16.873Z,64.00
2023-07-29T13:12:20.467Z,64.40
2023-07-29T13:22:29.357Z,64.10
2023-07-29T13:27:32.948Z,64.70
2023-07-29T13:32:36.710Z,64.40
2023-07-29T13:37:41.626Z,64.10
2023-07-29T13:42:45.219Z,63.70
2023-07-29T13:47:48.993Z,63.20
2023-07-29T13:52:53.921Z,63.50
2023-07-29T13:57:57.567Z,63.50
2023-07-29T14:03:01.171Z,63.30
2023-07-29T14:08:06.482Z,63.20
2023-07-29T14:13:10.078Z,63.20
2023-07-29T14:18:13.749Z,63.90
2023-07-29T14:23:18.749Z,64.20
2023-07-29T14:28:22.607Z,63.80
2023-07-29T14:33:27.672Z,63.50
2023-07-29T14:38:32.625Z,63.20
2023-07-29T14:48:40.206Z,62.90
2023-07-29T14:53:45.153Z,63.60
2023-07-29T14:58:50.530Z,63.90
2023-07-29T15:03:54.262Z,63.60
2023-07-29T15:08:59.239Z,63.60
2023-07-29T15:19:08.708Z,62.90
2023-07-29T15:24:13.662Z,63.60
2023-07-29T15:29:17.240Z,63.80
2023-07-29T15:39:26.731Z,63.90
2023-07-29T15:49:34.269Z,63.90
2023-07-29T15:54:39.310Z,64.40
2023-07-29T15:59:42.992Z,64.30
2023-07-29T16:04:46.590Z,64.20
2023-07-29T16:09:51.549Z,64.40
2023-07-29T16:14:55.110Z,64.70
2023-07-29T16:20:00.323Z,64.50
2023-07-29T16:25:05.790Z,64.90
2023-07-29T16:30:09.962Z,65.30
2023-07-29T16:35:13.580Z,65.60
2023-07-29T16:40:18.765Z,66.30
2023-07-29T16:55:31.639Z,70.70
2023-07-29T17:00:35.256Z,71.20
2023-07-29T17:05:38.771Z,73.00
2023-07-29T17:10:43.806Z,74.50
2023-07-29T17:15:48.811Z,76.00
2023-07-29T17:20:52.490Z,77.00
2023-07-29T17:25:57.382Z,77.90
2023-07-29T17:31:00.898Z,78.80
2023-07-29T17:36:04.811Z,79.70
2023-07-29T17:41:09.771Z,80.50
2023-07-29T17:46:14.623Z,81.50
2023-07-29T17:51:18.200Z,82.10
2023-07-29T17:56:23.166Z,82.30
2023-07-29T18:01:26.772Z,82.60
2023-07-29T18:06:30.647Z,83.00
2023-07-29T18:11:35.747Z,83.60
2023-07-29T18:16:42.218Z,84.80
2023-07-29T18:21:46.040Z,86.10
2023-07-29T18:26:50.982Z,86.40
2023-07-29T18:31:54.545Z,87.10
2023-07-29T18:36:58.177Z,87.70
2023-07-29T18:42:03.100Z,88.50
2023-07-29T18:47:07.462Z,89.00
2023-07-29T18:52:11.176Z,89.50
2023-07-29T18:57:16.220Z,90.50
2023-07-29T19:02:22.241Z,90.80
2023-07-29T19:07:26.294Z,91.10
2023-07-29T19:12:31.234Z,90.80
2023-07-29T19:17:35.688Z,91.00
2023-07-29T19:22:39.514Z,90.90
2023-07-29T19:27:44.482Z,90.90
2023-07-29T19:42:57.664Z,91.70
2023-07-29T19:53:08.660Z,92.00
2023-07-29T19:58:13.697Z,92.40
2023-07-29T20:13:27.908Z,93.10
2023-07-29T20:28:41.377Z,93.90
2023-07-29T20:33:44.944Z,94.20
2023-07-29T20:38:48.495Z,94.30
2023-07-29T20:43:54.985Z,94.50
2023-07-29T20:59:07.835Z,95.80
2023-07-29T21:14:20.875Z,95.60
2023-07-29T21:29:33.839Z,96.80
2023-07-29T21:44:46.675Z,97.40
2023-07-29T21:49:50.236Z,97.60
2023-07-29T21:54:53.791Z,97.50
2023-07-29T21:59:58.763Z,97.80
2023-07-29T22:05:02.482Z,98.00
2023-07-29T22:10:06.721Z,98.20
2023-07-29T22:15:12.360Z,98.30
2023-07-29T22:20:15.929Z,98.30
2023-07-29T22:25:19.677Z,98.50
2023-07-29T22:30:26.586Z,99.00
2023-07-29T22:35:30.626Z,99.30
2023-07-29T22:40:34.193Z,99.30
2023-07-29T22:45:39.153Z,99.20
2023-07-29T22:50:42.727Z,99.70
2023-07-29T22:55:47.818Z,99.90
2023-07-29T23:00:54.006Z,99.90
2023-07-29T23:05:57.564Z,99.90
2023-07-29T23:11:03.690Z,99.90
2023-07-29T23:16:08.645Z,99.90
2023-07-29T23:21:12.254Z,99.90
2023-07-29T23:26:15.878Z,99.80
2023-07-29T23:31:20.878Z,99.60
2023-07-29T23:36:24.935Z,99.40
2023-07-29T23:41:28.469Z,99.30
2023-07-29T23:46:33.382Z,99.10
2023-07-29T23:51:37.176Z,98.90
2023-07-29T23:56:40.852Z,98.90
